createdAt,value
2022-08-08T00:00:56.241Z,58.80
2022-08-08T00:02:36.182Z,58.90
2022-08-08T00:05:12.862Z,59.50
2022-08-08T00:07:49.114Z,59.00
2022-08-08T00:10:32.272Z,59.40
2022-08-08T00:13:02.927Z,59.30
2022-08-08T00:15:57.334Z,59.60
2022-08-08T00:18:02.992Z,60.90
2022-08-08T00:20:44.318Z,60.60
2022-08-08T00:23:11.361Z,61.00
2022-08-08T00:25:46.428Z,61.50
2022-08-08T00:28:34.499Z,62.20
2022-08-08T00:30:37.708Z,62.20
2022-08-08T00:33:05.303Z,62.50
2022-08-08T00:35:48.151Z,63.10
2022-08-08T00:38:32.098Z,63.30
2022-08-08T00:41:11.791Z,63.50
2022-08-08T00:44:05.205Z,63.70
2022-08-08T00:46:57.991Z,64.10
2022-08-08T00:49:58.720Z,63.80
2022-08-08T00:52:48.571Z,64.20
2022-08-08T00:55:22.160Z,64.50
2022-08-08T00:58:13.749Z,65.20
2022-08-08T01:01:11.321Z,65.60
2022-08-08T01:04:04.283Z,66.30
2022-08-08T01:07:02.173Z,66.30
2022-08-08T01:09:51.547Z,67.70
2022-08-08T01:12:29.716Z,68.00
2022-08-08T01:15:06.746Z,67.90
2022-08-08T01:17:55.669Z,68.00
2022-08-08T01:20:28.328Z,67.70
2022-08-08T01:23:01.959Z,67.80
2022-08-08T01:25:54.453Z,68.10
2022-08-08T01:28:27.788Z,68.40
2022-08-08T01:31:23.687Z,69.40
2022-08-08T01:33:54.354Z,69.40
2022-08-08T01:36:52.147Z,69.80
2022-08-08T01:39:42.138Z,70.70
2022-08-08T01:42:15.609Z,70.60
2022-08-08T01:45:04.582Z,72.00
2022-08-08T01:48:14.380Z,72.50
2022-08-08T01:50:20.193Z,72.50
2022-08-08T01:54:19.309Z,72.90
2022-08-08T01:56:29.611Z,73.60
2022-08-08T01:58:39.542Z,73.50
2022-08-08T02:01:09.037Z,73.60
2022-08-08T02:03:56.885Z,74.20
2022-08-08T02:06:50.062Z,74.60
2022-08-08T02:10:01.098Z,74.80
2022-08-08T02:11:52.977Z,75.00
2022-08-08T02:14:28.007Z,74.90
2022-08-08T02:16:55.611Z,75.00
2022-08-08T02:19:41.867Z,75.20
2022-08-08T02:22:13.285Z,75.40
2022-08-08T02:24:52.588Z,76.80
2022-08-08T02:27:20.202Z,76.40
2022-08-08T02:29:53.291Z,77.20
2022-08-08T02:32:26.460Z,77.70
2022-08-08T02:35:08.107Z,78.40
2022-08-08T02:37:52.844Z,79.30
2022-08-08T02:40:00.667Z,79.60
2022-08-08T02:42:46.641Z,80.30
2022-08-08T02:45:18.227Z,80.30
2022-08-08T02:47:52.202Z,80.70
2022-08-08T02:50:56.943Z,81.90
2022-08-08T02:53:51.192Z,81.90
2022-08-08T02:56:33.774Z,82.60
2022-08-08T02:59:37.155Z,83.20
2022-08-08T03:02:20.270Z,83.90
2022-08-08T03:05:04.944Z,84.90
2022-08-08T03:07:41.792Z,85.30
2022-08-08T03:10:44.793Z,85.30
2022-08-08T03:15:53.920Z,85.80
2022-08-08T03:16:09.754Z,86.20
2022-08-08T03:18:48.903Z,86.20
2022-08-08T03:21:15.981Z,86.50
2022-08-08T03:23:59.151Z,87.20
2022-08-08T03:26:15.591Z,87.90
2022-08-08T03:28:43.951Z,86.30
2022-08-08T03:31:37.964Z,86.90
2022-08-08T03:34:01.093Z,87.40
2022-08-08T03:36:27.930Z,87.40
2022-08-08T03:39:07.608Z,86.70
2022-08-08T03:41:43.099Z,86.80
2022-08-08T03:43:59.736Z,87.10
2022-08-08T03:46:25.627Z,87.50
2022-08-08T03:49:38.077Z,87.90
2022-08-08T03:51:40.326Z,88.70
2022-08-08T03:53:52.252Z,89.10
2022-08-08T03:56:31.560Z,89.30
2022-08-08T03:58:51.334Z,90.00
2022-08-08T04:01:23.384Z,90.10
2022-08-08T04:03:59.688Z,90.20
2022-08-08T04:06:14.154Z,90.50
2022-08-08T04:08:41.745Z,90.70
2022-08-08T04:11:10.861Z,91.00
2022-08-08T04:14:04.186Z,91.70
2022-08-08T04:16:05.801Z,91.60
2022-08-08T04:18:34.983Z,91.30
2022-08-08T04:21:01.340Z,91.50
2022-08-08T04:24:04.639Z,91.30
2022-08-08T04:25:56.528Z,91.40
2022-08-08T04:28:36.463Z,91.40
2022-08-08T04:30:51.747Z,91.50
2022-08-08T04:33:19.362Z,91.60
2022-08-08T04:35:51.469Z,92.00
2022-08-08T04:38:21.078Z,91.70
2022-08-08T04:40:51.716Z,92.00
2022-08-08T04:43:10.895Z,91.90
2022-08-08T04:45:39.247Z,91.70
2022-08-08T04:48:06.833Z,91.70
2022-08-08T04:50:37.830Z,92.00
2022-08-08T04:53:05.039Z,92.00
2022-08-08T04:55:37.822Z,92.00
2022-08-08T04:57:59.619Z,92.20
2022-08-08T05:00:27.983Z,92.40
2022-08-08T05:02:55.566Z,92.40
2022-08-08T05:05:44.454Z,92.70
2022-08-08T05:07:51.580Z,92.70
2022-08-08T05:10:19.195Z,92.80
2022-08-08T05:13:00.283Z,92.90
2022-08-08T05:15:14.470Z,93.10
2022-08-08T05:17:54.542Z,92.70
2022-08-08T05:20:15.026Z,92.60
2022-08-08T05:22:38.266Z,92.40
2022-08-08T05:25:05.860Z,92.30
2022-08-08T05:27:41.757Z,92.40
2022-08-08T05:30:01.894Z,92.40
2022-08-08T05:32:35.821Z,92.50
2022-08-08T05:34:58.696Z,92.80
2022-08-08T05:37:39.470Z,92.90
2022-08-08T05:39:54.648Z,92.90
2022-08-08T05:42:27.888Z,93.00
2022-08-08T05:44:57.367Z,93.30
2022-08-08T05:47:23.065Z,93.30
2022-08-08T05:49:54.416Z,93.40
2022-08-08T05:52:18.283Z,93.40
2022-08-08T05:54:51.204Z,93.40
2022-08-08T05:57:57.389Z,92.70
2022-08-08T05:59:59.974Z,92.70
2022-08-08T06:02:12.327Z,92.60
2022-08-08T06:04:40.615Z,92.40
2022-08-08T06:07:07.529Z,92.20
2022-08-08T06:09:58.164Z,91.80
2022-08-08T06:12:03.800Z,91.20
2022-08-08T06:14:32.161Z,91.00
2022-08-08T06:16:59.757Z,90.80
2022-08-08T06:19:27.579Z,90.70
2022-08-08T06:21:57.662Z,90.00
2022-08-08T06:24:30.480Z,88.10
2022-08-08T06:27:02.616Z,88.10
2022-08-08T06:29:56.575Z,87.30
2022-08-08T06:32:10.299Z,87.00
2022-08-08T06:34:28.369Z,86.50
2022-08-08T06:36:54.058Z,84.00
2022-08-08T06:39:21.870Z,82.80
2022-08-08T06:41:51.221Z,82.20
2022-08-08T06:44:25.308Z,81.80
2022-08-08T06:46:46.418Z,80.70
2022-08-08T06:49:14.810Z,79.00
2022-08-08T06:51:52.360Z,78.90
2022-08-08T06:54:10.755Z,78.90
2022-08-08T06:56:38.388Z,77.60
2022-08-08T06:59:12.173Z,76.10
2022-08-08T07:02:17.521Z,74.90
2022-08-08T07:04:39.125Z,74.90
2022-08-08T07:06:39.372Z,73.00
2022-08-08T07:09:06.953Z,72.90
2022-08-08T07:11:50.691Z,71.50
2022-08-08T07:14:02.965Z,71.50
2022-08-08T07:16:51.118Z,70.60
2022-08-08T07:19:25.989Z,68.90
2022-08-08T07:22:12.096Z,68.80
2022-08-08T07:24:48.934Z,68.80
2022-08-08T07:27:17.324Z,67.80
2022-08-08T07:30:01.937Z,67.30
2022-08-08T07:32:15.946Z,65.80
2022-08-08T07:35:00.296Z,65.80
2022-08-08T07:37:12.035Z,64.80
2022-08-08T07:39:56.119Z,64.20
2022-08-08T07:42:05.624Z,63.30
2022-08-08T07:44:40.496Z,63.30
2022-08-08T07:47:01.237Z,62.00
2022-08-08T07:49:28.859Z,61.90
2022-08-08T07:51:56.454Z,61.20
2022-08-08T07:54:49.020Z,60.60
2022-08-08T07:57:29.116Z,59.80
2022-08-08T08:00:13.435Z,59.80
2022-08-08T08:02:45.331Z,59.50
2022-08-08T08:05:18.560Z,58.70
2022-08-08T08:07:46.454Z,58.20
2022-08-08T08:10:14.496Z,57.40
2022-08-08T08:12:43.260Z,57.40
2022-08-08T08:15:09.773Z,57.20
2022-08-08T08:17:48.114Z,56.90
2022-08-08T08:20:05.219Z,56.50
2022-08-08T08:22:33.751Z,56.10
2022-08-08T08:25:08.117Z,55.60
2022-08-08T08:27:30.720Z,55.00
2022-08-08T08:29:55.680Z,54.60
2022-08-08T08:32:36.024Z,54.40
2022-08-08T08:34:50.946Z,54.20
2022-08-08T08:37:30.378Z,53.50
2022-08-08T08:40:01.196Z,52.80
2022-08-08T08:42:19.259Z,52.80
2022-08-08T08:44:42.909Z,51.90
2022-08-08T08:47:11.270Z,51.00
2022-08-08T08:49:42.942Z,51.00
2022-08-08T08:52:06.481Z,50.40
2022-08-08T08:54:34.191Z,50.30
2022-08-08T08:57:01.737Z,49.80
2022-08-08T08:59:59.074Z,48.90
2022-08-08T09:01:57.716Z,48.30
2022-08-08T09:04:32.049Z,48.30
2022-08-08T09:06:55.416Z,47.90
2022-08-08T09:09:35.246Z,47.60
2022-08-08T09:12:02.271Z,46.00
2022-08-08T09:14:19.005Z,46.40
2022-08-08T09:16:47.754Z,46.30
2022-08-08T09:19:14.234Z,46.90
2022-08-08T09:22:00.314Z,45.70
2022-08-08T09:24:09.402Z,45.40
2022-08-08T09:26:40.007Z,45.30
2022-08-08T09:29:09.392Z,45.30
2022-08-08T09:31:57.015Z,44.60
2022-08-08T09:34:32.888Z,44.00
2022-08-08T09:37:23.696Z,43.10
2022-08-08T09:39:19.195Z,42.40
2022-08-08T09:42:14.412Z,42.40
2022-08-08T09:44:29.724Z,41.80
2022-08-08T09:46:57.639Z,41.70
2022-08-08T09:49:42.653Z,41.60
2022-08-08T09:52:01.913Z,41.10
2022-08-08T09:54:19.852Z,41.00
2022-08-08T09:56:44.616Z,41.00
2022-08-08T09:59:42.834Z,40.80
2022-08-08T10:02:00.150Z,40.70
2022-08-08T10:04:06.141Z,40.80
2022-08-08T10:06:35.806Z,40.70
2022-08-08T10:09:01.387Z,40.70
2022-08-08T10:12:27.005Z,40.70
2022-08-08T10:13:57.760Z,40.70
2022-08-08T10:16:26.806Z,41.40
2022-08-08T10:18:55.487Z,40.80
2022-08-08T10:21:26.050Z,40.70
2022-08-08T10:23:58.348Z,40.50
2022-08-08T10:26:30.612Z,40.40
2022-08-08T10:28:55.903Z,40.10
2022-08-08T10:31:47.328Z,39.30
2022-08-08T10:34:19.851Z,39.30
2022-08-08T10:36:40.386Z,39.70
2022-08-08T10:39:08.837Z,40.00
2022-08-08T10:41:58.473Z,39.90
2022-08-08T10:44:04.022Z,40.00
2022-08-08T10:46:32.386Z,39.60
2022-08-08T10:48:59.970Z,39.60
2022-08-08T10:51:31.626Z,39.50
2022-08-08T10:53:59.818Z,39.80
2022-08-08T10:56:27.920Z,39.50
2022-08-08T10:58:58.595Z,39.30
2022-08-08T11:01:28.720Z,38.70
2022-08-08T11:04:02.142Z,38.70
2022-08-08T11:06:23.830Z,38.60
2022-08-08T11:08:53.807Z,38.80
2022-08-08T11:11:32.722Z,39.00
2022-08-08T11:13:51.816Z,39.00
2022-08-08T11:16:32.378Z,38.00
2022-08-08T11:18:52.433Z,37.90
2022-08-08T11:21:20.802Z,38.20
2022-08-08T11:24:01.595Z,37.90
2022-08-08T11:26:18.602Z,38.20
2022-08-08T11:28:43.623Z,38.00
2022-08-08T11:31:11.248Z,37.10
2022-08-08T11:33:51.546Z,37.00
2022-08-08T11:36:06.425Z,36.90
2022-08-08T11:38:39.526Z,36.90
2022-08-08T11:41:02.406Z,36.20
2022-08-08T11:43:39.383Z,36.20
2022-08-08T11:46:14.290Z,36.50
2022-08-08T11:48:27.707Z,36.40
2022-08-08T11:50:53.564Z,36.30
2022-08-08T11:53:21.197Z,36.20
2022-08-08T11:55:51.765Z,36.10
2022-08-08T11:58:21.822Z,35.60
2022-08-08T12:00:47.749Z,35.50
2022-08-08T12:03:23.998Z,35.50
2022-08-08T12:05:51.572Z,35.00
2022-08-08T12:08:31.357Z,35.00
2022-08-08T12:10:59.333Z,35.00
2022-08-08T12:13:37.819Z,35.20
2022-08-08T12:15:55.621Z,34.60
2022-08-08T12:18:24.951Z,34.80
2022-08-08T12:20:54.213Z,34.10
2022-08-08T12:23:43.817Z,34.40
2022-08-08T12:26:17.379Z,34.80
2022-08-08T12:28:39.065Z,34.50
2022-08-08T12:31:06.959Z,34.60
2022-08-08T12:33:37.889Z,33.90
2022-08-08T12:36:16.303Z,34.00
2022-08-08T12:38:47.805Z,33.90
2022-08-08T12:41:33.299Z,33.50
2022-08-08T12:43:47.963Z,33.50
2022-08-08T12:46:24.937Z,33.60
2022-08-08T12:51:25.997Z,33.60
2022-08-08T12:53:59.637Z,33.40
2022-08-08T12:56:33.089Z,33.50
2022-08-08T12:59:00.683Z,33.30
2022-08-08T13:01:38.570Z,33.40
2022-08-08T13:04:19.244Z,33.60
2022-08-08T13:06:56.027Z,33.10
2022-08-08T13:09:33.293Z,33.50
2022-08-08T13:12:26.913Z,32.80
2022-08-08T13:14:40.369Z,32.90
2022-08-08T13:17:08.248Z,33.10
2022-08-08T13:19:49.879Z,33.20
2022-08-08T13:22:06.905Z,32.70
2022-08-08T13:24:40.703Z,32.70
2022-08-08T13:27:02.345Z,32.80
2022-08-08T13:29:29.929Z,32.40
2022-08-08T13:31:57.552Z,32.30
2022-08-08T13:34:29.458Z,31.90
2022-08-08T13:36:52.741Z,31.70
2022-08-08T13:39:21.169Z,31.80
2022-08-08T13:41:54.546Z,32.10
2022-08-08T13:44:19.454Z,32.50
2022-08-08T13:46:57.619Z,32.50
2022-08-08T13:50:35.973Z,33.30
2022-08-08T13:52:02.570Z,32.70
2022-08-08T13:54:31.460Z,32.20
2022-08-08T13:57:12.329Z,31.40
2022-08-08T13:59:48.647Z,31.40
2022-08-08T14:02:16.727Z,31.60
2022-08-08T14:04:57.084Z,31.50
2022-08-08T14:07:29.864Z,31.50
2022-08-08T14:10:04.809Z,31.40
2022-08-08T14:12:29.809Z,31.40
2022-08-08T14:14:57.943Z,31.50
2022-08-08T14:17:57.426Z,31.40
2022-08-08T14:19:57.816Z,31.30
2022-08-08T14:22:21.674Z,31.10
2022-08-08T14:24:49.265Z,30.90
2022-08-08T14:27:27.227Z,30.90
2022-08-08T14:29:53.196Z,30.90
2022-08-08T14:32:29.941Z,31.20
2022-08-08T14:34:51.888Z,31.10
2022-08-08T14:37:19.515Z,30.90
2022-08-08T14:40:05.213Z,30.90
2022-08-08T14:42:30.424Z,31.00
2022-08-08T14:44:57.889Z,30.40
2022-08-08T14:47:25.474Z,30.40
2022-08-08T14:50:06.510Z,30.30
2022-08-08T14:52:21.668Z,30.30
2022-08-08T14:54:49.109Z,30.20
2022-08-08T14:57:16.735Z,30.40
2022-08-08T14:59:51.352Z,30.10
2022-08-08T15:02:15.471Z,30.00
2022-08-08T15:04:40.236Z,29.70
2022-08-08T15:07:22.243Z,29.20
2022-08-08T15:09:36.968Z,29.10
2022-08-08T15:12:04.593Z,28.90
2022-08-08T15:14:32.393Z,28.90
2022-08-08T15:16:59.957Z,28.80
2022-08-08T15:19:27.757Z,28.90
2022-08-08T15:21:55.184Z,29.00
2022-08-08T15:24:22.778Z,28.80
2022-08-08T15:26:52.688Z,28.10
2022-08-08T15:29:18.763Z,28.60
2022-08-08T15:32:03.029Z,28.50
2022-08-08T15:34:18.600Z,28.60
2022-08-08T15:36:42.354Z,28.50
2022-08-08T15:39:09.972Z,28.50
2022-08-08T15:41:43.791Z,28.70
2022-08-08T15:44:09.903Z,28.70
2022-08-08T15:46:34.718Z,28.50
2022-08-08T15:49:01.197Z,28.30
2022-08-08T15:51:33.554Z,28.60
2022-08-08T15:53:57.153Z,28.10
2022-08-08T15:56:25.555Z,28.00
2022-08-08T15:58:53.148Z,27.90
2022-08-08T16:01:22.513Z,27.90
2022-08-08T16:03:48.380Z,27.90
2022-08-08T16:06:27.572Z,27.60
2022-08-08T16:09:02.349Z,27.30
2022-08-08T16:13:12.069Z,27.30
2022-08-08T16:13:45.158Z,27.40
2022-08-08T16:16:13.494Z,27.40
2022-08-08T16:18:34.766Z,27.60
2022-08-08T16:21:02.350Z,27.40
2022-08-08T16:23:32.241Z,27.40
2022-08-08T16:26:03.475Z,27.60
2022-08-08T16:28:35.488Z,27.50
2022-08-08T16:30:54.290Z,27.30
2022-08-08T16:33:29.839Z,27.30
2022-08-08T16:35:49.767Z,27.10
2022-08-08T16:38:26.434Z,27.10
2022-08-08T16:40:46.342Z,27.00
2022-08-08T16:43:14.651Z,27.00
2022-08-08T16:46:43.645Z,27.00
2022-08-08T16:48:10.667Z,27.10
2022-08-08T16:50:38.221Z,27.10
2022-08-08T16:55:05.496Z,27.10
2022-08-08T16:55:52.883Z,27.10
2022-08-08T16:58:14.496Z,27.20
2022-08-08T17:00:28.668Z,27.30
2022-08-08T17:02:56.259Z,27.30
2022-08-08T17:05:23.853Z,27.30
2022-08-08T17:07:51.685Z,27.40
2022-08-08T17:10:19.558Z,27.50
2022-08-08T17:12:47.065Z,27.70
2022-08-08T17:15:20.083Z,27.80
2022-08-08T17:18:03.620Z,28.00
2022-08-08T17:20:10.617Z,28.00
2022-08-08T17:22:42.660Z,27.70
2022-08-08T17:25:06.700Z,27.70
2022-08-08T17:27:46.132Z,27.80
2022-08-08T17:30:01.889Z,27.90
2022-08-08T17:32:34.287Z,28.00
2022-08-08T17:35:54.758Z,28.90
2022-08-08T17:37:25.497Z,28.30
2022-08-08T17:40:05.787Z,28.60
2022-08-08T17:42:21.493Z,29.30
2022-08-08T17:44:49.776Z,28.70
2022-08-08T17:47:23.662Z,29.10
2022-08-08T17:49:45.080Z,30.00
2022-08-08T17:52:12.685Z,29.80
2022-08-08T17:54:41.086Z,30.70
2022-08-08T17:57:08.680Z,30.70
2022-08-08T17:59:45.533Z,31.20
2022-08-08T18:02:04.675Z,32.30
2022-08-08T18:04:32.268Z,32.20
2022-08-08T18:06:59.857Z,32.50
2022-08-08T18:09:27.486Z,33.00
2022-08-08T18:11:55.079Z,33.60
2022-08-08T18:14:22.675Z,34.10
2022-08-08T18:16:54.092Z,34.40
2022-08-08T18:19:18.707Z,35.20
2022-08-08T18:21:59.856Z,35.20
2022-08-08T18:24:18.732Z,35.70
2022-08-08T18:26:41.529Z,36.00
2022-08-08T18:29:09.112Z,36.50
2022-08-08T18:31:39.180Z,36.70
2022-08-08T18:34:12.268Z,37.10
2022-08-08T18:36:31.934Z,37.50
2022-08-08T18:38:59.597Z,37.40
2022-08-08T18:41:51.170Z,38.40
2022-08-08T18:43:54.774Z,38.00
2022-08-08T18:46:54.832Z,38.30
2022-08-08T18:48:49.992Z,38.50
2022-08-08T18:51:48.293Z,38.80
2022-08-08T18:54:00.497Z,38.80
2022-08-08T18:56:24.939Z,39.10
2022-08-08T18:58:52.556Z,39.00
2022-08-08T19:02:25.238Z,39.30
2022-08-08T19:04:05.497Z,39.60
2022-08-08T19:06:15.377Z,39.90
2022-08-08T19:08:42.974Z,40.20
2022-08-08T19:11:10.565Z,40.40
2022-08-08T19:13:56.944Z,40.70
2022-08-08T19:16:05.782Z,40.80
2022-08-08T19:18:48.407Z,41.00
2022-08-08T19:21:01.284Z,41.30
2022-08-08T19:23:29.636Z,42.10
2022-08-08T19:26:25.043Z,41.50
2022-08-08T19:28:25.642Z,42.00
2022-08-08T19:31:04.156Z,42.00
2022-08-08T19:33:20.829Z,41.90
2022-08-08T19:36:08.711Z,42.40
2022-08-08T19:38:21.894Z,42.40
2022-08-08T19:40:44.400Z,42.70
2022-08-08T19:43:12.251Z,43.00
2022-08-08T19:45:59.462Z,43.30
2022-08-08T19:48:28.968Z,43.80
2022-08-08T19:50:35.622Z,43.90
2022-08-08T19:53:03.204Z,44.20
2022-08-08T19:55:33.971Z,44.60
2022-08-08T19:57:59.211Z,44.80
2022-08-08T20:00:29.992Z,44.70
2022-08-08T20:02:54.420Z,45.10
2022-08-08T20:06:15.015Z,45.40
2022-08-08T20:08:28.354Z,45.80
2022-08-08T20:10:17.977Z,46.60
2022-08-08T20:12:59.034Z,46.50
2022-08-08T20:15:15.140Z,47.00
2022-08-08T20:17:40.793Z,47.30
2022-08-08T20:20:08.401Z,47.90
2022-08-08T20:22:38.723Z,48.30
2022-08-08T20:25:06.365Z,48.70
2022-08-08T20:27:49.200Z,49.10
2022-08-08T20:30:01.714Z,49.40
2022-08-08T20:32:29.215Z,49.60
2022-08-08T20:35:01.461Z,50.10
2022-08-08T20:37:25.260Z,50.00
2022-08-08T20:39:52.901Z,50.30
2022-08-08T20:42:23.637Z,50.60
2022-08-08T20:44:48.830Z,51.10
2022-08-08T20:47:23.309Z,51.10
2022-08-08T20:49:46.805Z,51.40
2022-08-08T20:52:12.419Z,52.50
2022-08-08T20:54:40.003Z,51.80
2022-08-08T20:57:17.136Z,52.30
2022-08-08T20:59:41.337Z,52.20
2022-08-08T21:02:07.342Z,52.50
2022-08-08T21:04:31.264Z,52.70
2022-08-08T21:06:59.625Z,52.60
2022-08-08T21:09:31.604Z,52.60
2022-08-08T21:12:02.999Z,52.70
2022-08-08T21:14:30.655Z,53.50
2022-08-08T21:16:50.810Z,53.00
2022-08-08T21:19:19.199Z,53.20
2022-08-08T21:21:46.785Z,53.10
2022-08-08T21:24:24.041Z,53.40
2022-08-08T21:26:42.043Z,53.50
2022-08-08T21:29:09.634Z,53.60
2022-08-08T21:31:58.503Z,54.20
2022-08-08T21:34:04.851Z,53.90
2022-08-08T21:36:32.465Z,54.00
2022-08-08T21:39:00.036Z,54.20
2022-08-08T21:41:38.555Z,54.40
2022-08-08T21:43:55.492Z,54.70
2022-08-08T21:48:08.718Z,55.10
2022-08-08T21:48:53.562Z,55.00
2022-08-08T21:54:17.693Z,55.30
2022-08-08T21:54:34.363Z,55.40
2022-08-08T21:56:28.207Z,55.70
2022-08-08T21:58:42.712Z,56.10
2022-08-08T22:01:21.227Z,56.00
2022-08-08T22:03:38.370Z,56.00
2022-08-08T22:06:05.965Z,56.10
2022-08-08T22:08:37.298Z,56.40
2022-08-08T22:11:01.203Z,56.60
2022-08-08T22:13:43.354Z,57.10
2022-08-08T22:15:59.300Z,57.10
2022-08-08T22:18:24.789Z,57.40
2022-08-08T22:20:53.142Z,58.10
2022-08-08T22:23:20.757Z,57.60
2022-08-08T22:26:28.244Z,57.60
2022-08-08T22:29:04.045Z,57.90
2022-08-08T22:30:44.363Z,57.50
2022-08-08T22:34:10.806Z,58.30
2022-08-08T22:36:05.452Z,58.10
2022-08-08T22:38:08.425Z,58.10
2022-08-08T22:40:36.057Z,58.10
2022-08-08T22:43:03.632Z,58.40
2022-08-08T22:45:31.232Z,58.70
2022-08-08T22:47:59.608Z,60.00
2022-08-08T22:50:28.591Z,59.80
2022-08-08T22:54:30.923Z,60.00
2022-08-08T22:55:26.613Z,60.00
2022-08-08T22:57:54.198Z,60.20
2022-08-08T23:00:21.781Z,60.50
2022-08-08T23:02:50.406Z,60.80
2022-08-08T23:05:17.008Z,61.10
2022-08-08T23:07:56.955Z,61.50
2022-08-08T23:10:12.226Z,61.80
2022-08-08T23:12:41.563Z,62.20
2022-08-08T23:15:10.645Z,62.60
2022-08-08T23:17:46.847Z,61.90
2022-08-08T23:20:05.752Z,61.60
2022-08-08T23:22:34.213Z,61.90
2022-08-08T23:25:01.736Z,61.90
2022-08-08T23:27:39.062Z,62.30
2022-08-08T23:29:56.910Z,62.60
2022-08-08T23:32:25.326Z,63.30
2022-08-08T23:34:59.205Z,63.30
2022-08-08T23:37:24.389Z,63.00
2022-08-08T23:39:55.198Z,63.30
2022-08-08T23:42:16.558Z,63.30
2022-08-08T23:44:45.237Z,63.60
2022-08-08T23:48:59.646Z,63.80
2022-08-08T23:49:40.117Z,64.50
2022-08-08T23:52:09.449Z,64.50
2022-08-08T23:54:43.719Z,64.80
2022-08-08T23:57:25.561Z,65.30
2022-08-08T23:59:34.237Z,64.90
